E.r. Basel — A8XQ4 — position and weather

sailwx.info

Track history (hours):
 
Tides and Currents Weather Stations Pressure Air Temp Water Temp Dewpoint Dewpoint Depression Visibility Wind Speed Wind Dir Waves Ship Positions

E.r. Basel

Last reported at 2016-Oct-14 16:33 UTC. Time now 2016-Dec-10 12:51 UTC.
Position N 31°16' E 032°20'.
Warning: this ship's position is 56 days out of date.

Length 187 m; draft 12.8 m.

Type: Cargo ship. MMSI: 636092149.

Date/timePositionNaut miles runAvg speedWind from/ knotsBaromVisibWave heightAir tempDewpointWater temp
2016-Oct-14 16:33N 31°16' E 032°20'0 0.0
2016-Oct-14 15:33N 31°16' E 032°20'0 0.0
2016-Oct-14 14:33N 31°16' E 032°20'0 0.0
2016-Oct-14 13:28N 31°16' E 032°20'0 0.0
2016-Oct-14 11:33N 31°16' E 032°20'0 0.0
2016-Oct-14 10:27N 31°16' E 032°20'55 6.8
2016-Oct-14 02:27N 31°58' E 031°38'4110.5
2016-Oct-13 22:33N 32°21' E 030°59'1110.6
2016-Oct-13 21:33N 32°25' E 030°47'1110.6
2016-Oct-13 20:33N 32°28' E 030°35'  
2016-Oct-10 14:33N 36°40' E 013°45'1311.1
2016-Oct-10 13:24N 36°44' E 013°30'48311.0
2016-Oct-08 17:28N 37°06' E 003°26'1010.9
2016-Oct-08 16:32N 37°04' E 003°14'18211.3
2016-Oct-08 00:23N 36°35' W 000°30'8811.1
2016-Oct-07 16:30N 36°21' W 002°18'14811.4
2016-Oct-07 03:33N 35°60' W 005°19'1312.2
2016-Oct-07 02:28N 35°56' W 005°35'1210.5
2016-Oct-07 01:18N 35°55' W 005°50'16010.8
2016-Oct-06 10:31N 36°13' W 009°06'6711.3
2016-Oct-06 04:33N 36°21' W 010°29'1411.2
2016-Oct-06 03:19N 36°23' W 010°47'911.0
2016-Oct-06 02:31N 36°23' W 010°58'1010.8
2016-Oct-06 01:33N 36°24' W 011°10'1110.8
2016-Oct-06 00:33N 36°25' W 011°24'1310.5
2016-Oct-05 23:17N 36°27' W 011°40'2910.5
2016-Oct-05 20:33N 36°29' W 012°16'1410.5
2016-Oct-05 19:13N 36°30' W 012°33'  
Track history (hours):
 
Tides and Currents Weather Stations Pressure Air Temp Water Temp Dewpoint Dewpoint Depression Visibility Wind Speed Wind Dir Waves Ship Positions

E.r. Basel

Last reported at 2016-Oct-14 16:33 UTC. Time now 2016-Dec-10 12:51 UTC.
Position N 31°16' E 032°20'.
Warning: this ship's position is 56 days out of date.

Length 187 m; draft 12.8 m.

Type: Cargo ship. MMSI: 636092149.

Date/timePositionNaut miles runAvg speedWind from/ knotsBaromVisibWave heightAir tempDewpointWater temp
2016-Oct-14 16:33N 31°16' E 032°20'0 0.0
2016-Oct-14 15:33N 31°16' E 032°20'0 0.0
2016-Oct-14 14:33N 31°16' E 032°20'0 0.0
2016-Oct-14 13:28N 31°16' E 032°20'0 0.0
2016-Oct-14 11:33N 31°16' E 032°20'0 0.0
2016-Oct-14 10:27N 31°16' E 032°20'55 6.8
2016-Oct-14 02:27N 31°58' E 031°38'4110.5
2016-Oct-13 22:33N 32°21' E 030°59'1110.6
2016-Oct-13 21:33N 32°25' E 030°47'1110.6
2016-Oct-13 20:33N 32°28' E 030°35'  
2016-Oct-10 14:33N 36°40' E 013°45'1311.1
2016-Oct-10 13:24N 36°44' E 013°30'48311.0
2016-Oct-08 17:28N 37°06' E 003°26'1010.9
2016-Oct-08 16:32N 37°04' E 003°14'18211.3
2016-Oct-08 00:23N 36°35' W 000°30'8811.1
2016-Oct-07 16:30N 36°21' W 002°18'14811.4
2016-Oct-07 03:33N 35°60' W 005°19'1312.2
2016-Oct-07 02:28N 35°56' W 005°35'1210.5
2016-Oct-07 01:18N 35°55' W 005°50'16010.8
2016-Oct-06 10:31N 36°13' W 009°06'6711.3
2016-Oct-06 04:33N 36°21' W 010°29'1411.2
2016-Oct-06 03:19N 36°23' W 010°47'911.0
2016-Oct-06 02:31N 36°23' W 010°58'1010.8
2016-Oct-06 01:33N 36°24' W 011°10'1110.8
2016-Oct-06 00:33N 36°25' W 011°24'1310.5
2016-Oct-05 23:17N 36°27' W 011°40'2910.5
2016-Oct-05 20:33N 36°29' W 012°16'1410.5
2016-Oct-05 19:13N 36°30' W 012°33'  

Dump ship's entire track history